createdAt,value
2019-05-07T10:20:23.320Z,3.77
2019-05-07T10:22:53.729Z,3.90
2019-05-07T10:25:25.688Z,3.72
2019-05-07T10:27:55.778Z,3.67
2019-05-07T10:30:26.196Z,3.33
2019-05-07T10:32:56.695Z,3.75
2019-05-07T10:35:30.921Z,3.90
2019-05-07T10:38:01.935Z,3.62
2019-05-07T10:40:32.829Z,3.08
2019-05-07T10:43:03.096Z,3.80
2019-05-07T10:45:38.679Z,3.10
2019-05-07T10:48:16.830Z,3.47
2019-05-07T10:50:58.149Z,3.45
2019-05-07T10:53:28.356Z,3.40
2019-05-07T10:55:58.648Z,3.10
2019-05-07T10:58:29.035Z,2.80
2019-05-07T11:00:59.626Z,2.95
2019-05-07T11:03:29.820Z,2.95
2019-05-07T11:06:00.028Z,3.15
2019-05-07T11:08:32.675Z,3.10
2019-05-07T11:11:02.920Z,2.98
2019-05-07T11:13:33.427Z,3.47
2019-05-07T11:16:05.193Z,3.00
2019-05-07T11:18:37.233Z,3.12
2019-05-07T11:21:07.468Z,2.90
2019-05-07T11:23:37.630Z,2.85
2019-05-07T11:26:07.911Z,2.75
2019-05-07T11:28:38.151Z,3.15
2019-05-07T11:31:08.781Z,3.42
2019-05-07T11:33:39.126Z,3.17
2019-05-07T11:36:09.292Z,3.15
2019-05-07T11:38:39.534Z,2.95
2019-05-07T11:41:09.757Z,3.25
2019-05-07T11:43:45.724Z,3.00
2019-05-07T11:46:23.730Z,3.25
2019-05-07T11:48:55.744Z,3.40
2019-05-07T11:51:25.667Z,3.40
2019-05-07T11:54:09.625Z,3.52
2019-05-07T11:56:42.026Z,3.02
2019-05-07T11:59:13.348Z,3.55
2019-05-07T12:01:47.781Z,2.80
2019-05-07T12:04:17.305Z,3.42
2019-05-07T12:06:47.647Z,3.00
2019-05-07T12:09:21.633Z,2.92
2019-05-07T12:11:52.055Z,3.12
2019-05-07T12:14:30.943Z,3.45
2019-05-07T12:16:54.920Z,3.08
2019-05-07T12:19:25.610Z,2.90
2019-05-07T12:22:00.321Z,2.92
2019-05-07T12:24:32.686Z,3.33
2019-05-07T12:29:33.102Z,3.33
2019-05-07T12:32:07.624Z,3.10
2019-05-07T12:34:39.650Z,3.00
2019-05-07T12:37:12.121Z,3.10
2019-05-07T12:42:13.462Z,3.10
2019-05-07T12:44:44.049Z,2.83
2019-05-07T12:47:14.416Z,3.05
2019-05-07T12:49:44.642Z,2.95
2019-05-07T12:52:16.335Z,3.00
2019-05-07T12:54:48.150Z,3.02
2019-05-07T12:57:18.323Z,3.60
2019-05-07T12:59:49.686Z,3.10
2019-05-07T13:02:37.360Z,3.10
2019-05-07T13:04:53.893Z,3.42
2019-05-07T13:07:23.800Z,2.90
2019-05-07T13:09:54.858Z,2.87
2019-05-07T13:12:25.067Z,3.00
2019-05-07T13:14:55.576Z,3.27
2019-05-07T13:17:25.997Z,3.37
2019-05-07T13:19:56.338Z,3.17
2019-05-07T13:22:26.687Z,3.22
2019-05-07T13:24:56.953Z,3.40
2019-05-07T13:27:27.307Z,3.20
2019-05-07T13:29:57.950Z,3.15
2019-05-07T13:32:31.899Z,3.05
2019-05-07T13:35:03.519Z,2.80
2019-05-07T13:37:35.600Z,3.05
2019-05-07T13:42:46.326Z,2.85
2019-05-07T13:45:27.311Z,2.83
2019-05-07T13:47:59.391Z,3.10
2019-05-07T13:52:59.018Z,3.27
2019-05-07T13:55:29.310Z,3.15
2019-05-07T13:57:59.616Z,3.17
2019-05-07T14:00:32.465Z,2.95
2019-05-07T14:03:03.353Z,2.90
2019-05-07T14:05:33.817Z,3.47
2019-05-07T14:08:04.739Z,3.42
2019-05-07T14:10:35.138Z,2.70
2019-05-07T14:13:11.164Z,3.30
2019-05-07T14:18:06.907Z,3.10
2019-05-07T14:20:37.148Z,3.10
2019-05-07T14:23:07.380Z,3.17
2019-05-07T14:25:37.690Z,3.12
2019-05-07T14:28:07.941Z,4.25
2019-05-07T14:30:38.630Z,6.95
2019-05-07T14:35:52.064Z,2.83
2019-05-07T14:38:23.763Z,3.47
2019-05-07T14:40:54.155Z,2.70
2019-05-07T14:43:28.521Z,3.00
2019-05-07T14:46:00.311Z,2.80
2019-05-07T14:48:30.715Z,3.40
2019-05-07T14:51:02.198Z,2.55
2019-05-07T14:53:32.888Z,2.72
2019-05-07T14:56:03.550Z,3.10
2019-05-07T14:58:33.666Z,2.58
2019-05-07T15:01:04.127Z,2.87
2019-05-07T15:06:04.309Z,2.72
2019-05-07T15:08:34.739Z,2.40
2019-05-07T15:11:05.350Z,2.42
2019-05-07T15:13:36.005Z,2.40
2019-05-07T15:16:07.203Z,2.77
2019-05-07T15:18:47.797Z,2.87
2019-05-07T15:21:18.143Z,2.72
2019-05-07T15:23:49.535Z,2.50
2019-05-07T15:26:21.923Z,2.35
2019-05-07T15:31:26.495Z,2.80
2019-05-07T15:33:56.729Z,2.80
2019-05-07T15:38:56.123Z,2.80
2019-05-07T15:41:26.289Z,3.12
2019-05-07T15:43:56.382Z,2.75
2019-05-07T15:48:55.981Z,2.72
2019-05-07T15:51:26.111Z,2.70
2019-05-07T15:53:57.779Z,2.85
2019-05-07T15:56:29.290Z,2.90
2019-05-07T15:58:59.575Z,2.98
2019-05-07T16:01:29.876Z,3.33
2019-05-07T16:04:02.609Z,3.08
2019-05-07T16:06:32.410Z,2.80
2019-05-07T16:09:04.656Z,3.35
2019-05-07T16:11:35.038Z,3.08
2019-05-07T16:14:04.895Z,2.62
2019-05-07T16:16:36.687Z,2.60
2019-05-07T16:19:09.115Z,4.75
2019-05-07T16:21:39.637Z,2.62
2019-05-07T16:24:11.972Z,2.80
2019-05-07T16:26:41.989Z,2.80
2019-05-07T16:29:13.341Z,2.80
2019-05-07T16:31:44.399Z,2.90
2019-05-07T16:34:14.583Z,2.50
2019-05-07T16:36:44.785Z,2.90
2019-05-07T16:39:15.151Z,2.77
2019-05-07T16:41:45.252Z,2.85
2019-05-07T16:44:15.627Z,2.60
2019-05-07T16:46:46.748Z,2.70
2019-05-07T16:49:16.828Z,2.75
2019-05-07T16:51:47.135Z,3.20
2019-05-07T16:54:17.459Z,3.20
2019-05-07T16:57:05.417Z,2.62
2019-05-07T16:59:35.655Z,3.27
2019-05-07T17:02:07.431Z,4.37
2019-05-07T17:04:39.036Z,3.60
2019-05-07T17:07:13.186Z,2.90
2019-05-07T17:09:42.696Z,2.60
2019-05-07T17:12:14.513Z,2.83
2019-05-07T17:14:44.619Z,4.67
2019-05-07T17:17:14.930Z,2.70
2019-05-07T17:19:45.128Z,2.65
2019-05-07T17:22:15.493Z,3.12
2019-05-07T17:24:45.779Z,2.50
2019-05-07T17:27:16.175Z,2.65
2019-05-07T17:29:46.282Z,2.70
2019-05-07T17:32:16.456Z,2.75
2019-05-07T17:34:46.673Z,2.65
2019-05-07T17:37:16.978Z,2.35
2019-05-07T17:39:47.147Z,2.12
2019-05-07T17:42:17.548Z,2.58
2019-05-07T17:44:47.802Z,2.52
2019-05-07T17:47:17.971Z,2.75
2019-05-07T17:49:48.230Z,2.90
2019-05-07T17:52:18.611Z,2.70
2019-05-07T17:54:48.733Z,2.42
2019-05-07T17:57:19.132Z,2.70
2019-05-07T17:59:49.407Z,2.40
2019-05-07T18:02:19.461Z,2.92
2019-05-07T18:04:52.250Z,2.77
2019-05-07T18:07:21.562Z,2.67
2019-05-07T18:09:51.947Z,2.40
2019-05-07T18:12:22.565Z,2.55
2019-05-07T18:14:53.045Z,2.60
2019-05-07T18:17:27.665Z,2.47
2019-05-07T18:19:58.024Z,2.37
2019-05-07T18:22:28.176Z,2.60
2019-05-07T18:24:58.390Z,2.37
2019-05-07T18:27:28.597Z,2.45
2019-05-07T18:29:58.878Z,2.72
2019-05-07T18:32:32.427Z,2.92
2019-05-07T18:35:02.639Z,2.85
2019-05-07T18:37:32.783Z,3.10
2019-05-07T18:40:03.088Z,2.90
2019-05-07T18:42:33.447Z,3.50
2019-05-07T18:45:03.683Z,3.30
2019-05-07T18:47:33.945Z,3.00
2019-05-07T18:50:05.776Z,3.20
2019-05-07T18:52:36.029Z,2.90
2019-05-07T18:55:08.805Z,2.70
2019-05-07T18:57:38.997Z,2.50
2019-05-07T19:00:18.979Z,2.58
2019-05-07T19:02:49.441Z,2.50
2019-05-07T19:05:19.625Z,2.60
2019-05-07T19:08:02.359Z,2.72
2019-05-07T19:10:22.039Z,2.62
2019-05-07T19:12:53.122Z,3.00
2019-05-07T19:15:23.433Z,2.95
2019-05-07T19:17:53.192Z,2.67
2019-05-07T19:20:23.009Z,2.60
2019-05-07T19:22:53.091Z,2.72
2019-05-07T19:25:22.958Z,3.25
2019-05-07T19:27:52.756Z,2.98
2019-05-07T19:30:22.706Z,2.80
2019-05-07T19:32:52.653Z,2.70
2019-05-07T19:35:23.082Z,3.02
2019-05-07T19:37:53.643Z,2.90
2019-05-07T19:40:23.692Z,2.70
2019-05-07T19:42:53.360Z,3.00
2019-05-07T19:45:24.539Z,2.80
2019-05-07T19:47:54.376Z,2.98
2019-05-07T19:50:24.224Z,3.12
2019-05-07T19:52:53.878Z,3.00
2019-05-07T19:55:23.599Z,3.05
2019-05-07T19:58:00.770Z,3.02
2019-05-07T20:00:32.662Z,3.20
2019-05-07T20:03:03.362Z,3.27
2019-05-07T20:05:33.353Z,3.27
2019-05-07T20:08:04.700Z,3.33
2019-05-07T20:10:44.754Z,2.77
2019-05-07T20:13:14.411Z,2.72
2019-05-07T20:15:45.851Z,3.15
2019-05-07T20:18:15.558Z,3.00
2019-05-07T20:20:45.302Z,3.12
2019-05-07T20:23:15.144Z,3.10
2019-05-07T20:25:44.861Z,3.12
2019-05-07T20:28:16.542Z,2.70
2019-05-07T20:30:45.893Z,3.58
2019-05-07T20:33:15.718Z,3.10
2019-05-07T20:35:45.439Z,3.50
2019-05-07T20:38:15.163Z,3.20
2019-05-07T20:40:44.822Z,2.92
2019-05-07T20:43:14.460Z,2.92
2019-05-07T20:45:44.178Z,3.02
2019-05-07T20:48:13.962Z,2.60
2019-05-07T20:50:43.815Z,3.17
2019-05-07T20:53:13.409Z,3.20
2019-05-07T20:55:47.873Z,2.50
2019-05-07T20:58:17.494Z,2.62
2019-05-07T21:00:47.747Z,2.70
2019-05-07T21:03:20.392Z,2.30
2019-05-07T21:05:53.159Z,2.80
2019-05-07T21:08:23.177Z,2.47
2019-05-07T21:10:53.843Z,2.98
2019-05-07T21:13:30.776Z,3.05
2019-05-07T21:15:56.737Z,3.20
2019-05-07T21:18:26.427Z,3.55
2019-05-07T21:20:56.214Z,3.42
2019-05-07T21:23:25.981Z,3.40
2019-05-07T21:25:55.721Z,3.15
2019-05-07T21:28:25.403Z,2.80
2019-05-07T21:30:55.025Z,3.70
2019-05-07T21:33:24.625Z,3.45
2019-05-07T21:35:54.274Z,3.85
2019-05-07T21:38:23.982Z,3.60
2019-05-07T21:40:53.650Z,4.00
2019-05-07T21:43:23.348Z,4.10
2019-05-07T21:45:53.170Z,4.42
2019-05-07T21:48:22.920Z,4.10
2019-05-07T21:50:53.070Z,4.10
2019-05-07T21:53:27.250Z,5.05
2019-05-07T21:56:05.444Z,4.97
2019-05-07T21:58:34.998Z,5.20
2019-05-07T22:01:06.440Z,4.85
2019-05-07T22:03:36.143Z,5.10
2019-05-07T22:06:09.452Z,5.20
2019-05-07T22:08:37.535Z,5.60
2019-05-07T22:11:07.282Z,6.22
2019-05-07T22:13:37.014Z,6.65
2019-05-07T22:16:06.761Z,5.80
2019-05-07T22:18:36.390Z,5.62
2019-05-07T22:21:06.232Z,5.20
2019-05-07T22:23:35.919Z,5.62
2019-05-07T22:26:19.300Z,6.55
2019-05-07T22:28:37.780Z,5.37
2019-05-07T22:31:26.923Z,5.67
2019-05-07T22:34:07.026Z,5.15
2019-05-07T22:36:36.567Z,5.28
2019-05-07T22:39:08.276Z,5.60
2019-05-07T22:41:37.920Z,6.33
2019-05-07T22:44:07.670Z,6.83
2019-05-07T22:46:37.412Z,7.75
2019-05-07T22:49:07.069Z,9.18
2019-05-07T22:51:36.906Z,11.00
2019-05-07T22:54:06.653Z,9.98
2019-05-07T22:56:54.172Z,8.80
2019-05-07T22:59:23.862Z,7.65
2019-05-07T23:01:54.904Z,6.40
2019-05-07T23:04:24.985Z,6.58
2019-05-07T23:06:54.817Z,5.85
2019-05-07T23:09:24.405Z,4.87
2019-05-07T23:11:54.992Z,4.50
2019-05-07T23:14:24.715Z,4.58
2019-05-07T23:16:55.434Z,4.15
2019-05-07T23:19:25.335Z,4.78
2019-05-07T23:21:54.960Z,4.85
2019-05-07T23:24:24.951Z,4.83
2019-05-07T23:26:54.758Z,3.92
2019-05-07T23:29:24.405Z,3.85
2019-05-07T23:31:56.779Z,3.90
2019-05-07T23:34:26.490Z,4.22
2019-05-07T23:36:56.251Z,4.90
2019-05-07T23:39:30.337Z,4.95
2019-05-07T23:42:04.337Z,5.08
2019-05-07T23:44:34.004Z,5.28
2019-05-07T23:47:03.765Z,4.90
2019-05-07T23:49:33.433Z,4.60
2019-05-07T23:52:03.329Z,4.53
2019-05-07T23:54:33.074Z,4.75
2019-05-07T23:57:06.942Z,5.12
2019-05-07T23:59:34.216Z,5.58
